Time;durP1;ratioP1;P1;durP2;ratioP2;P2;SDS_P1;SDS_P2;PMS_P1;PMS_P2;Temp;Humidity;BMP_temperature;BMP_pressure;BME280_temperature;BME280_humidity;BME280_pressure;Samples;Min_cycle;Max_cycle;Signal;HPM_P1;HPM_P2
2023/04/27 00:01:14;;;;;;;2.17;1.23;;;16.20;77.80;;;;;;5030901;28;20492;-82
2023/04/27 00:03:41;;;;;;;1.33;1.23;;;16.10;77.90;;;;;;5024601;28;20195;-81
2023/04/27 00:06:09;;;;;;;1.50;1.40;;;16.10;78.00;;;;;;5021636;28;20022;-82
2023/04/27 00:08:35;;;;;;;2.78;1.58;;;16.10;78.40;;;;;;5039653;28;20071;-81
2023/04/27 00:11:01;;;;;;;1.77;1.52;;;16.10;78.50;;;;;;5042887;28;20009;-81
2023/04/27 00:13:27;;;;;;;2.28;1.83;;;16.10;78.50;;;;;;5039234;28;20506;-81
2023/04/27 00:15:52;;;;;;;1.77;1.60;;;16.10;78.60;;;;;;5033933;28;20453;-81
2023/04/27 00:18:18;;;;;;;2.50;1.60;;;16.10;78.80;;;;;;5026548;28;20083;-81
2023/04/27 00:20:44;;;;;;;1.98;1.55;;;16.10;78.80;;;;;;5029645;28;20041;-81
2023/04/27 00:23:10;;;;;;;2.13;1.55;;;16.10;79.00;;;;;;5031822;28;20045;-81
2023/04/27 00:25:36;;;;;;;1.30;1.20;;;16.10;79.10;;;;;;5034269;28;20026;-81
2023/04/27 00:28:02;;;;;;;4.07;1.88;;;16.10;79.80;;;;;;5036681;28;20100;-81
2023/04/27 00:30:28;;;;;;;3.58;1.83;;;16.10;79.40;;;;;;5038582;28;20017;-81
2023/04/27 00:32:53;;;;;;;1.75;1.65;;;16.10;79.50;;;;;;5018284;28;20033;-81
2023/04/27 00:35:19;;;;;;;7.43;1.70;;;16.10;79.60;;;;;;5035293;28;20074;-81
2023/04/27 00:37:45;;;;;;;1.90;1.70;;;16.00;79.80;;;;;;5035177;28;20025;-82
2023/04/27 00:40:11;;;;;;;2.15;1.70;;;16.00;79.90;;;;;;5024345;28;20048;-81
2023/04/27 00:42:37;;;;;;;2.15;1.80;;;16.00;80.10;;;;;;5035224;28;20470;-81
2023/04/27 00:45:04;;;;;;;1.83;1.63;;;16.00;80.00;;;;;;5034309;28;20096;-82
2023/04/27 00:47:30;;;;;;;1.90;1.42;;;16.00;80.00;;;;;;5036955;28;20117;-82
2023/04/27 00:49:55;;;;;;;2.38;1.67;;;15.90;80.00;;;;;;5028550;28;20421;-83
2023/04/27 00:52:21;;;;;;;2.60;1.40;;;15.90;80.10;;;;;;5038169;28;20029;-83
2023/04/27 00:54:51;;;;;;;1.88;1.40;;;15.90;80.40;;;;;;5037599;28;20474;-82
2023/04/27 00:57:17;;;;;;;2.38;1.60;;;15.90;80.50;;;;;;5044405;28;20049;-85
2023/04/27 00:59:43;;;;;;;1.50;1.35;;;15.90;80.70;;;;;;5034946;28;20022;-84
2023/04/27 01:02:10;;;;;;;3.25;1.63;;;15.90;81.00;;;;;;5042143;28;20029;-84
2023/04/27 01:04:36;;;;;;;1.35;1.15;;;15.80;81.20;;;;;;5035051;28;20026;-82
2023/04/27 01:07:02;;;;;;;3.70;1.48;;;15.80;81.50;;;;;;5039911;28;20033;-82
2023/04/27 01:09:28;;;;;;;1.85;1.27;;;15.80;81.60;;;;;;5029332;28;20034;-82
2023/04/27 01:11:53;;;;;;;1.50;1.40;;;15.80;81.80;;;;;;5035921;28;20044;-82
2023/04/27 01:14:19;;;;;;;1.98;1.60;;;15.90;81.90;;;;;;5038247;28;20100;-83
2023/04/27 01:16:46;;;;;;;1.80;1.60;;;15.80;82.00;;;;;;5043867;28;20028;-82
2023/04/27 01:19:12;;;;;;;1.75;1.65;;;15.90;82.10;;;;;;5025752;28;20489;-82
2023/04/27 01:21:37;;;;;;;2.72;1.60;;;15.80;82.30;;;;;;5038422;28;20064;-83
2023/04/27 01:24:06;;;;;;;2.75;1.73;;;15.80;82.40;;;;;;5027659;28;20033;-83
2023/04/27 01:26:32;;;;;;;2.00;1.65;;;15.90;82.50;;;;;;5038360;28;20492;-83
2023/04/27 01:28:58;;;;;;;2.13;1.70;;;15.80;82.50;;;;;;5037983;28;20036;-84
2023/04/27 01:31:23;;;;;;;2.15;1.70;;;15.80;82.60;;;;;;5031728;28;20458;-84
2023/04/27 01:33:49;;;;;;;2.67;1.75;;;15.80;82.70;;;;;;5036570;28;20021;-85
2023/04/27 01:36:15;;;;;;;3.65;2.20;;;15.80;82.80;;;;;;5031420;28;20113;-83
2023/04/27 01:38:41;;;;;;;2.90;2.00;;;15.80;82.90;;;;;;5015327;28;20121;-84
2023/04/27 01:41:08;;;;;;;2.95;1.83;;;15.80;83.00;;;;;;5014769;28;20041;-83
2023/04/27 01:43:35;;;;;;;1.77;1.63;;;15.80;83.00;;;;;;5032955;28;20039;-84
2023/04/27 01:46:12;;;;;;;2.97;1.55;;;15.80;83.20;;;;;;5028326;28;20116;-84
2023/04/27 01:48:39;;;;;;;2.55;2.13;;;15.70;83.40;;;;;;5028687;28;20020;-84
2023/04/27 01:51:05;;;;;;;2.03;1.77;;;15.70;83.40;;;;;;5035082;28;20504;-82
2023/04/27 01:53:31;;;;;;;3.08;1.77;;;15.70;83.40;;;;;;5042481;28;20105;-84
2023/04/27 01:55:58;;;;;;;2.30;2.08;;;15.70;83.60;;;;;;5018701;28;20033;-84
2023/04/27 01:58:24;;;;;;;2.20;1.80;;;15.60;83.60;;;;;;5038207;28;20112;-84
2023/04/27 02:00:50;;;;;;;2.60;1.77;;;15.60;83.50;;;;;;5043051;28;20454;-83
2023/04/27 02:03:16;;;;;;;2.03;1.83;;;15.60;83.50;;;;;;5040316;28;20040;-83
2023/04/27 02:05:41;;;;;;;2.28;2.08;;;15.60;83.50;;;;;;5018848;28;20409;-84
2023/04/27 02:08:07;;;;;;;3.80;2.55;;;15.50;83.00;;;;;;5037647;28;20098;-84
2023/04/27 02:10:34;;;;;;;3.85;2.63;;;15.50;82.70;;;;;;5019904;28;20075;-85
2023/04/27 02:13:00;;;;;;;3.45;2.80;;;15.40;82.70;;;;;;5037792;28;20021;-86
2023/04/27 02:15:25;;;;;;;4.18;3.78;;;15.30;82.60;;;;;;5020649;28;20029;-84
2023/04/27 02:17:51;;;;;;;4.03;3.53;;;15.20;82.70;;;;;;5024083;28;20068;-84
2023/04/27 02:20:17;;;;;;;4.57;3.97;;;15.20;82.60;;;;;;5048061;28;20037;-85
2023/04/27 02:22:43;;;;;;;5.25;4.25;;;15.10;82.50;;;;;;5035715;28;20092;-85
2023/04/27 02:25:12;;;;;;;4.25;3.85;;;15.10;82.30;;;;;;5034941;28;20036;-85
2023/04/27 02:27:42;;;;;;;4.88;3.40;;;15.10;82.30;;;;;;5017982;28;20017;-85
2023/04/27 02:30:10;;;;;;;5.28;4.15;;;15.10;82.40;;;;;;5039381;28;20020;-85
2023/04/27 02:32:36;;;;;;;4.78;3.90;;;15.10;82.30;;;;;;5056380;28;20557;-85
2023/04/27 02:35:02;;;;;;;4.57;4.00;;;15.00;82.10;;;;;;5048737;28;20092;-85
2023/04/27 02:37:28;;;;;;;5.72;3.72;;;15.00;82.10;;;;;;5048967;28;20060;-86
2023/04/27 02:39:54;;;;;;;4.45;3.85;;;15.00;82.00;;;;;;5055922;28;20061;-85
2023/04/27 02:42:20;;;;;;;4.88;3.70;;;15.00;82.40;;;;;;5055824;28;20055;-85
2023/04/27 02:44:46;;;;;;;4.00;3.60;;;15.00;81.90;;;;;;5031242;28;20022;-85
2023/04/27 02:47:11;;;;;;;4.30;3.85;;;15.00;81.90;;;;;;5020973;28;20026;-85
2023/04/27 02:49:37;;;;;;;5.45;3.95;;;15.00;82.00;;;;;;5016146;28;20482;-85
2023/04/27 02:52:03;;;;;;;5.85;3.67;;;14.90;82.10;;;;;;5015957;28;20014;-85
2023/04/27 02:54:29;;;;;;;7.03;4.47;;;14.90;82.10;;;;;;5030477;28;20044;-83
2023/04/27 02:56:55;;;;;;;4.88;3.85;;;14.90;82.10;;;;;;5026544;28;20032;-82
2023/04/27 02:59:21;;;;;;;5.43;3.72;;;14.90;82.00;;;;;;5031885;28;20025;-83
2023/04/27 03:01:46;;;;;;;5.13;4.22;;;14.90;82.10;;;;;;5043678;28;20342;-83
2023/04/27 03:04:15;;;;;;;4.60;4.13;;;14.90;82.10;;;;;;5033927;28;20041;-83
2023/04/27 03:06:41;;;;;;;4.88;3.97;;;14.90;82.30;;;;;;5037847;28;20061;-83
2023/04/27 03:09:07;;;;;;;8.65;3.75;;;14.90;82.40;;;;;;5035185;28;20045;-82
2023/04/27 03:11:33;;;;;;;5.65;3.83;;;14.90;82.40;;;;;;5048280;28;20021;-82
2023/04/27 03:13:58;;;;;;;5.30;4.47;;;14.90;82.50;;;;;;5050256;28;20163;-82
2023/04/27 03:16:24;;;;;;;6.93;4.57;;;14.90;82.50;;;;;;5027233;28;20073;-84
2023/04/27 03:18:50;;;;;;;4.85;4.18;;;14.80;82.50;;;;;;5043753;28;20083;-82
2023/04/27 03:21:15;;;;;;;7.15;4.50;;;14.90;82.60;;;;;;5055364;28;20499;-83
2023/04/27 03:23:42;;;;;;;4.20;3.58;;;14.80;82.90;;;;;;5055271;28;20406;-83
2023/04/27 03:26:09;;;;;;;6.85;5.40;;;14.80;82.30;;;;;;5026114;28;20036;-83
2023/04/27 03:28:36;;;;;;;6.40;4.65;;;14.70;82.30;;;;;;5035256;28;20026;-83
2023/04/27 03:31:09;;;;;;;5.65;4.22;;;14.60;82.50;;;;;;5035368;28;20026;-83
2023/04/27 03:33:35;;;;;;;6.38;3.90;;;14.60;82.50;;;;;;5035146;28;20108;-83
2023/04/27 03:36:03;;;;;;;5.78;4.85;;;14.60;82.50;;;;;;5017588;28;20028;-83
2023/04/27 03:38:29;;;;;;;5.80;5.05;;;14.50;82.50;;;;;;5034426;28;20040;-83
2023/04/27 03:40:55;;;;;;;6.88;5.45;;;14.50;82.50;;;;;;5035330;28;20017;-83
2023/04/27 03:43:21;;;;;;;6.60;4.13;;;14.60;82.60;;;;;;5035336;28;20040;-83
2023/04/27 03:45:47;;;;;;;6.78;4.93;;;14.60;82.40;;;;;;5036212;28;20056;-83
2023/04/27 03:48:13;;;;;;;4.90;4.35;;;14.50;82.30;;;;;;5013463;28;20484;-83
2023/04/27 03:50:40;;;;;;;6.15;5.10;;;14.60;82.30;;;;;;5028263;28;20473;-83
2023/04/27 03:53:06;;;;;;;5.85;4.72;;;14.60;82.30;;;;;;5034723;28;20029;-83
2023/04/27 03:55:31;;;;;;;5.68;4.85;;;14.60;82.20;;;;;;5015317;28;20477;-84
2023/04/27 03:57:57;;;;;;;4.75;4.03;;;14.60;82.20;;;;;;5037170;28;20656;-84
2023/04/27 04:00:23;;;;;;;6.57;5.10;;;14.60;82.10;;;;;;5053209;28;20485;-84
2023/04/27 04:02:50;;;;;;;7.32;4.72;;;14.60;82.10;;;;;;5039965;28;20080;-84
2023/04/27 04:05:17;;;;;;;5.25;4.68;;;14.60;82.00;;;;;;5033278;28;20030;-84
2023/04/27 04:07:43;;;;;;;5.65;5.05;;;14.60;81.90;;;;;;5027286;28;20493;-84
2023/04/27 04:10:09;;;;;;;5.13;4.63;;;14.50;81.90;;;;;;5040558;28;20088;-84
2023/04/27 04:12:35;;;;;;;5.63;4.35;;;14.50;81.90;;;;;;5034507;28;20021;-85
2023/04/27 04:15:02;;;;;;;7.60;5.20;;;14.50;82.00;;;;;;5014586;28;20033;-84
2023/04/27 04:17:28;;;;;;;6.60;5.60;;;14.50;82.00;;;;;;5031206;28;20029;-83
2023/04/27 04:19:54;;;;;;;6.63;5.53;;;14.50;82.00;;;;;;5042781;28;20036;-83
2023/04/27 04:22:20;;;;;;;8.82;5.38;;;14.50;81.90;;;;;;5039763;28;20040;-83
2023/04/27 04:24:46;;;;;;;6.97;5.72;;;14.50;82.50;;;;;;5033509;28;20084;-82
2023/04/27 04:27:12;;;;;;;6.95;5.65;;;14.50;82.10;;;;;;5032534;28;20017;-82
2023/04/27 04:29:38;;;;;;;7.25;5.72;;;14.50;82.00;;;;;;5048422;28;20090;-83
2023/04/27 04:32:04;;;;;;;7.55;5.40;;;14.40;82.10;;;;;;5033002;28;20028;-82
2023/04/27 04:34:29;;;;;;;6.93;5.78;;;14.50;82.20;;;;;;5038186;28;20036;-81
2023/04/27 04:36:58;;;;;;;7.50;5.68;;;14.50;82.20;;;;;;5034232;28;20074;-81
2023/04/27 04:39:25;;;;;;;7.53;5.25;;;14.50;82.20;;;;;;5031428;28;20041;-81
2023/04/27 04:41:51;;;;;;;6.03;5.43;;;14.50;82.30;;;;;;5012005;28;20393;-80
2023/04/27 04:44:18;;;;;;;6.25;5.28;;;14.50;82.40;;;;;;5027348;28;20044;-79
2023/04/27 04:46:44;;;;;;;7.30;5.40;;;14.50;82.40;;;;;;5028140;28;20022;-79
2023/04/27 04:49:09;;;;;;;5.97;4.75;;;14.40;82.50;;;;;;5026558;28;20036;-81
2023/04/27 04:51:35;;;;;;;6.75;5.20;;;14.40;82.50;;;;;;5032894;28;20036;-81
2023/04/27 04:54:01;;;;;;;7.15;5.80;;;14.40;82.60;;;;;;5032591;28;20025;-81
2023/04/27 04:56:27;;;;;;;9.32;5.78;;;14.40;82.80;;;;;;5033062;28;20032;-81
2023/04/27 04:58:52;;;;;;;8.48;5.70;;;14.40;82.80;;;;;;5041648;28;20094;-81
2023/04/27 05:01:18;;;;;;;6.38;5.38;;;14.50;82.70;;;;;;5040086;28;20536;-80
2023/04/27 05:03:44;;;;;;;5.63;5.03;;;14.50;83.20;;;;;;5033571;28;20068;-81
2023/04/27 05:06:10;;;;;;;8.25;4.93;;;14.50;82.70;;;;;;5037600;28;20049;-82
2023/04/27 05:08:36;;;;;;;7.03;5.03;;;14.50;82.70;;;;;;5042155;28;20033;-78
2023/04/27 05:11:01;;;;;;;6.10;5.20;;;14.50;82.70;;;;;;5034073;28;20508;-78
2023/04/27 05:13:28;;;;;;;7.95;5.38;;;14.50;82.70;;;;;;5029508;28;20033;-79
2023/04/27 05:15:54;;;;;;;7.47;5.40;;;14.50;82.50;;;;;;5006221;28;20034;-78
2023/04/27 05:18:20;;;;;;;6.78;5.30;;;14.50;82.40;;;;;;5028334;28;20565;-78
2023/04/27 05:20:45;;;;;;;8.23;5.32;;;14.50;82.30;;;;;;5027984;28;20477;-79
2023/04/27 05:23:11;;;;;;;7.82;5.88;;;14.50;82.20;;;;;;5029336;28;20589;-78
2023/04/27 05:25:40;;;;;;;5.68;4.90;;;14.60;82.20;;;;;;5027961;28;20061;-80
2023/04/27 05:28:07;;;;;;;5.55;4.85;;;14.60;82.20;;;;;;5025932;28;20446;-79
2023/04/27 05:30:33;;;;;;;6.57;5.00;;;14.60;82.30;;;;;;5046510;28;20430;-80
2023/04/27 05:32:59;;;;;;;6.05;4.93;;;14.60;82.50;;;;;;5022443;28;20075;-81
2023/04/27 05:35:25;;;;;;;5.80;4.80;;;14.60;82.30;;;;;;5046199;28;20029;-81
2023/04/27 05:37:51;;;;;;;5.25;4.40;;;14.70;82.10;;;;;;5038796;28;20100;-81
2023/04/27 05:40:17;;;;;;;7.88;4.30;;;14.70;81.90;;;;;;5026226;28;20034;-81
2023/04/27 05:42:45;;;;;;;6.65;4.70;;;14.70;81.80;;;;;;5029451;28;20033;-82
2023/04/27 05:45:11;;;;;;;4.53;4.00;;;14.70;81.80;;;;;;5040724;28;20026;-80
2023/04/27 05:47:37;;;;;;;6.68;4.65;;;14.80;81.40;;;;;;5014659;28;20045;-80
2023/04/27 05:50:02;;;;;;;5.97;4.35;;;14.80;81.10;;;;;;5031218;28;20131;-79
2023/04/27 05:52:29;;;;;;;6.15;4.53;;;14.90;81.20;;;;;;5021374;28;20112;-80
2023/04/27 05:54:57;;;;;;;7.47;5.05;;;14.90;80.90;;;;;;5030136;28;20389;-80
2023/04/27 05:57:23;;;;;;;4.70;4.10;;;15.00;81.20;;;;;;5029073;28;20156;-80
2023/04/27 05:59:49;;;;;;;5.15;4.47;;;15.00;81.30;;;;;;5015199;28;20041;-80
2023/04/27 06:02:15;;;;;;;5.50;4.15;;;15.10;81.10;;;;;;5033033;28;20025;-81
2023/04/27 06:04:41;;;;;;;5.20;4.10;;;15.10;81.60;;;;;;5032485;28;20390;-81
2023/04/27 06:07:08;;;;;;;6.28;3.70;;;15.20;81.00;;;;;;5032554;28;20060;-80
2023/04/27 06:09:34;;;;;;;3.83;3.28;;;15.20;80.40;;;;;;5032511;28;20053;-81
2023/04/27 06:12:00;;;;;;;5.53;3.95;;;15.20;80.30;;;;;;5029472;28;20125;-81
2023/04/27 06:14:27;;;;;;;5.45;4.03;;;15.30;80.50;;;;;;5033158;28;20057;-80
2023/04/27 06:16:52;;;;;;;4.68;3.65;;;15.40;80.60;;;;;;5036307;28;20415;-80
2023/04/27 06:19:18;;;;;;;4.63;3.67;;;15.50;80.00;;;;;;5045933;28;20025;-78
2023/04/27 06:21:44;;;;;;;5.35;3.75;;;15.50;80.00;;;;;;5049151;28;20321;-79
2023/04/27 06:24:09;;;;;;;4.20;3.80;;;15.60;79.90;;;;;;5033811;28;20412;-80
2023/04/27 06:26:35;;;;;;;3.72;3.33;;;15.60;79.50;;;;;;5031798;28;20033;-79
2023/04/27 06:29:02;;;;;;;4.15;3.13;;;15.70;79.40;;;;;;5028502;28;20100;-83
2023/04/27 06:31:29;;;;;;;3.80;3.25;;;15.80;79.70;;;;;;5045445;28;20546;-79
2023/04/27 06:33:54;;;;;;;3.72;3.25;;;15.80;78.90;;;;;;5013713;28;20070;-79
2023/04/27 06:36:20;;;;;;;3.47;2.78;;;15.80;78.70;;;;;;4995821;28;20088;-79
2023/04/27 06:38:46;;;;;;;4.07;3.10;;;15.80;79.10;;;;;;5013142;28;20177;-79
2023/04/27 06:41:12;;;;;;;4.03;3.00;;;15.90;78.60;;;;;;5013409;28;20022;-79
2023/04/27 06:43:37;;;;;;;3.63;2.88;;;16.00;78.40;;;;;;5012623;28;20030;-79
2023/04/27 06:46:04;;;;;;;3.60;3.10;;;16.00;78.20;;;;;;5012887;28;20025;-79
2023/04/27 06:48:30;;;;;;;3.78;3.13;;;16.10;78.20;;;;;;4999021;28;20026;-79
2023/04/27 06:50:55;;;;;;;4.93;3.38;;;16.20;78.00;;;;;;5016747;28;20014;-79
2023/04/27 06:53:21;;;;;;;4.65;2.97;;;16.20;78.00;;;;;;4998411;28;20037;-79
2023/04/27 06:55:47;;;;;;;3.88;3.35;;;16.30;77.80;;;;;;5016107;28;20026;-79
2023/04/27 06:58:13;;;;;;;3.35;3.03;;;16.30;77.80;;;;;;5013439;28;20116;-79
2023/04/27 07:00:38;;;;;;;3.88;2.78;;;16.40;77.50;;;;;;5035718;28;20053;-79
2023/04/27 07:03:04;;;;;;;6.15;3.38;;;16.50;77.10;;;;;;5035790;28;20493;-79
2023/04/27 07:05:30;;;;;;;3.35;2.60;;;16.60;76.50;;;;;;5034214;28;20477;-79
2023/04/27 07:07:55;;;;;;;3.03;2.72;;;16.70;76.10;;;;;;5035865;28;20463;-79
2023/04/27 07:10:21;;;;;;;2.60;2.38;;;16.70;75.80;;;;;;5035729;28;20480;-79
2023/04/27 07:12:46;;;;;;;2.60;2.28;;;16.80;75.80;;;;;;5035757;28;20451;-79
2023/04/27 07:15:12;;;;;;;2.75;2.28;;;16.80;74.70;;;;;;5035631;28;20034;-79
2023/04/27 07:17:38;;;;;;;2.45;2.15;;;16.80;74.30;;;;;;5035782;28;20017;-79
2023/04/27 07:20:05;;;;;;;7.32;2.58;;;16.90;74.40;;;;;;5017517;28;20037;-79
2023/04/27 07:22:32;;;;;;;2.72;2.28;;;17.00;74.40;;;;;;5035447;28;20045;-79
2023/04/27 07:24:58;;;;;;;4.05;2.33;;;17.10;74.20;;;;;;5035909;28;20013;-80
2023/04/27 07:27:25;;;;;;;2.80;2.38;;;17.20;74.20;;;;;;5035759;28;20464;-80
2023/04/27 07:29:51;;;;;;;3.67;2.60;;;17.20;73.90;;;;;;5035429;28;20077;-80
2023/04/27 07:32:17;;;;;;;4.40;2.60;;;17.30;73.60;;;;;;5035703;28;20457;-80
2023/04/27 07:34:42;;;;;;;4.22;2.70;;;17.30;73.80;;;;;;5035565;28;20080;-80
2023/04/27 07:37:08;;;;;;;7.32;3.55;;;17.40;73.80;;;;;;5035232;28;20036;-79
2023/04/27 07:39:34;;;;;;;13.82;4.60;;;17.40;73.50;;;;;;5035498;28;20029;-80
2023/04/27 07:42:02;;;;;;;5.68;2.88;;;17.50;73.30;;;;;;5035388;28;20112;-79
2023/04/27 07:44:29;;;;;;;30.48;9.27;;;17.50;73.20;;;;;;5035062;28;20060;-80
2023/04/27 07:46:57;;;;;;;5.97;3.33;;;17.60;73.10;;;;;;5035482;28;20022;-80
2023/04/27 07:49:24;;;;;;;4.10;2.63;;;17.70;73.70;;;;;;5035257;28;20032;-80
2023/04/27 07:51:50;;;;;;;2.50;2.30;;;17.70;72.90;;;;;;5017305;28;20030;-80
2023/04/27 07:54:15;;;;;;;2.75;2.15;;;17.80;72.50;;;;;;5035456;28;20036;-80
2023/04/27 07:56:42;;;;;;;4.07;2.15;;;17.80;72.10;;;;;;5034954;28;20096;-80
2023/04/27 07:59:08;;;;;;;2.80;1.77;;;17.90;71.70;;;;;;5034004;28;20115;-80
2023/04/27 08:01:33;;;;;;;2.67;2.00;;;17.90;71.60;;;;;;5035180;28;20096;-80
2023/04/27 08:03:59;;;;;;;5.13;2.05;;;18.00;71.60;;;;;;5035108;28;20037;-80
2023/04/27 08:06:27;;;;;;;2.92;2.22;;;18.10;71.10;;;;;;5034933;28;20064;-80
2023/04/27 08:08:57;;;;;;;4.10;1.85;;;18.20;71.50;;;;;;5035162;28;20026;-80
2023/04/27 08:11:23;;;;;;;2.15;1.95;;;18.20;70.60;;;;;;5034470;28;20021;-80
2023/04/27 08:13:48;;;;;;;3.08;1.65;;;18.30;70.40;;;;;;5034574;28;20030;-79
2023/04/27 08:16:14;;;;;;;3.08;2.00;;;18.30;70.30;;;;;;5016849;28;20087;-80
2023/04/27 08:18:40;;;;;;;2.75;1.90;;;18.40;70.40;;;;;;5034716;28;20080;-80
2023/04/27 08:21:05;;;;;;;3.60;1.65;;;18.50;69.70;;;;;;5016765;28;20513;-80
2023/04/27 08:23:31;;;;;;;3.00;1.98;;;18.60;69.90;;;;;;5016147;28;20124;-80
2023/04/27 08:25:57;;;;;;;2.75;2.10;;;18.60;68.80;;;;;;5050547;28;20025;-79
2023/04/27 08:28:23;;;;;;;4.32;1.55;;;18.60;68.80;;;;;;5054522;28;20033;-80
2023/04/27 08:30:49;;;;;;;2.03;1.20;;;18.70;68.70;;;;;;5054585;28;20353;-79
2023/04/27 08:33:15;;;;;;;1.50;1.13;;;18.80;68.50;;;;;;5054064;28;20107;-79
2023/04/27 08:35:40;;;;;;;4.03;1.70;;;18.90;68.30;;;;;;5049750;28;20104;-80
2023/04/27 08:38:06;;;;;;;3.63;1.70;;;19.00;67.30;;;;;;5034289;28;20033;-80
2023/04/27 08:40:32;;;;;;;1.83;1.30;;;19.00;67.10;;;;;;5034031;28;20095;-79
2023/04/27 08:42:59;;;;;;;2.60;1.50;;;19.10;66.60;;;;;;5034175;28;20025;-80
2023/04/27 08:45:26;;;;;;;3.22;1.00;;;19.20;66.30;;;;;;5034166;28;20470;-80
2023/04/27 08:47:52;;;;;;;1.73;1.00;;;19.20;64.50;;;;;;5034102;28;20037;-80
2023/04/27 08:50:19;;;;;;;2.22;0.95;;;19.30;64.40;;;;;;5034029;28;20555;-80
2023/04/27 08:52:45;;;;;;;1.67;1.20;;;19.40;64.30;;;;;;5033835;28;20037;-80
2023/04/27 08:55:12;;;;;;;4.07;1.30;;;19.50;63.80;;;;;;5033945;28;20061;-80
2023/04/27 08:57:38;;;;;;;3.58;1.23;;;19.50;62.20;;;;;;5034102;28;20018;-80
2023/04/27 09:00:11;;;;;;;2.67;1.60;;;19.60;63.50;;;;;;5034008;28;20048;-80
2023/04/27 09:02:44;;;;;;;2.00;1.52;;;19.70;63.60;;;;;;5033761;28;20022;-80
2023/04/27 09:05:17;;;;;;;2.55;1.52;;;19.80;65.00;;;;;;5033812;28;20468;-80
2023/04/27 09:07:54;;;;;;;2.25;1.20;;;19.90;64.50;;;;;;5027405;28;20029;-80
2023/04/27 09:10:22;;;;;;;2.45;1.20;;;20.00;64.70;;;;;;5033329;28;20473;-80
2023/04/27 09:12:59;;;;;;;2.20;0.88;;;20.20;63.70;;;;;;5016071;28;20060;-80
2023/04/27 09:15:25;;;;;;;4.50;1.50;;;20.20;62.90;;;;;;5016181;28;20516;-80
2023/04/27 09:17:55;;;;;;;1.40;1.02;;;20.30;61.70;;;;;;5033811;28;20037;-80
2023/04/27 09:20:22;;;;;;;1.30;0.80;;;20.40;61.70;;;;;;5033840;28;20032;-80
2023/04/27 09:22:50;;;;;;;2.38;0.82;;;20.50;61.80;;;;;;5033274;28;20172;-80
2023/04/27 09:25:27;;;;;;;0.95;0.70;;;20.60;60.50;;;;;;5016002;28;20034;-80
2023/04/27 09:27:54;;;;;;;0.90;0.60;;;20.70;59.70;;;;;;5033771;28;20061;-80
2023/04/27 09:30:20;;;;;;;1.20;0.60;;;20.80;58.90;;;;;;5033682;28;20045;-80
2023/04/27 09:32:54;;;;;;;0.93;0.60;;;20.90;58.10;;;;;;5033520;28;20473;-80
2023/04/27 09:35:21;;;;;;;0.85;0.30;;;21.00;57.30;;;;;;5015149;28;20025;-80
2023/04/27 09:37:52;;;;;;;0.43;0.40;;;21.10;55.90;;;;;;5033058;28;20039;-80
2023/04/27 09:40:29;;;;;;;0.80;0.40;;;21.30;53.80;;;;;;5033905;28;20032;-80
2023/04/27 09:42:57;;;;;;;0.55;0.40;;;21.30;52.90;;;;;;5033023;28;20022;-80
2023/04/27 09:45:24;;;;;;;2.20;0.38;;;21.40;53.00;;;;;;5033361;28;20557;-80
2023/04/27 09:47:50;;;;;;;1.35;0.45;;;21.50;52.50;;;;;;5033594;28;20025;-80
2023/04/27 09:50:16;;;;;;;2.80;0.32;;;21.60;52.30;;;;;;5033393;28;20047;-80
2023/04/27 09:52:42;;;;;;;0.32;0.30;;;21.70;51.80;;;;;;5033270;28;20518;-80
2023/04/27 09:55:15;;;;;;;0.40;0.30;;;21.80;49.00;;;;;;5033180;28;20021;-80
2023/04/27 09:57:59;;;;;;;0.50;0.30;;;21.80;47.90;;;;;;5033320;28;20033;-80
2023/04/27 10:00:40;;;;;;;0.73;0.60;;;21.90;49.70;;;;;;5033363;28;20018;-80
2023/04/27 10:03:43;;;;;;;0.32;0.32;;;22.10;49.70;;;;;;5033226;28;20037;-80
2023/04/27 10:06:33;;;;;;;0.65;0.30;;;22.30;49.80;;;;;;5032722;28;20026;-80
2023/04/27 10:09:02;;;;;;;;;;;22.50;49.40;;;;;;5015726;28;20037;-80
2023/04/27 10:11:46;;;;;;;2.53;0.65;;;22.60;49.40;;;;;;5033074;28;19912;-80
2023/04/27 10:14:17;;;;;;;1.25;0.68;;;22.70;49.10;;;;;;5015186;28;20351;-80
2023/04/27 10:16:56;;;;;;;0.60;0.60;;;22.80;50.10;;;;;;5032938;28;20041;-80
2023/04/27 10:19:24;;;;;;;1.88;0.90;;;22.80;50.50;;;;;;5015339;28;20331;-80
2023/04/27 10:22:06;;;;;;;1.08;0.80;;;22.90;51.20;;;;;;5034159;28;20112;-80
2023/04/27 10:24:43;;;;;;;1.58;0.90;;;23.00;52.10;;;;;;5036469;28;20041;-80
2023/04/27 10:27:12;;;;;;;2.35;0.77;;;23.10;53.10;;;;;;5036758;28;20454;-80
2023/04/27 10:29:43;;;;;;;1.17;0.80;;;23.20;53.30;;;;;;5019061;28;20366;-80
2023/04/27 10:32:11;;;;;;;1.42;0.80;;;23.30;53.10;;;;;;5036717;28;20040;-80
2023/04/27 10:34:37;;;;;;;1.40;0.80;;;23.40;52.80;;;;;;5036193;28;20097;-80
2023/04/27 10:37:08;;;;;;;1.50;0.80;;;23.50;51.80;;;;;;5035167;28;20068;-80
2023/04/27 10:39:37;;;;;;;0.73;0.63;;;23.60;51.30;;;;;;5018653;28;20033;-80
2023/04/27 10:42:04;;;;;;;1.48;0.70;;;23.70;50.30;;;;;;5036521;28;20037;-80
2023/04/27 10:44:32;;;;;;;1.55;0.50;;;23.70;50.50;;;;;;5036229;28;20083;-80
2023/04/27 10:47:20;;;;;;;1.15;0.43;;;23.80;51.20;;;;;;5035975;28;20033;-81
2023/04/27 10:49:47;;;;;;;0.60;0.40;;;24.00;51.30;;;;;;5036297;28;20792;-81
2023/04/27 10:52:12;;;;;;;1.00;0.80;;;24.00;50.20;;;;;;5018659;28;20052;-80
2023/04/27 10:54:38;;;;;;;0.80;0.40;;;24.10;50.00;;;;;;5036316;28;20449;-80
2023/04/27 10:57:09;;;;;;;2.25;0.70;;;24.20;49.30;;;;;;5036354;28;20128;-80
2023/04/27 10:59:50;;;;;;;2.65;0.60;;;24.30;48.90;;;;;;5036236;28;20033;-80
2023/04/27 11:02:16;;;;;;;15.48;0.70;;;24.40;47.40;;;;;;5035972;28;20029;-80
2023/04/27 11:04:42;;;;;;;0.90;0.52;;;24.50;46.90;;;;;;5034567;28;20034;-81
2023/04/27 11:07:09;;;;;;;2.05;0.80;;;24.60;47.60;;;;;;5035613;28;20026;-82
2023/04/27 11:09:39;;;;;;;0.63;0.50;;;24.70;48.00;;;;;;5036441;28;20484;-82
2023/04/27 11:12:11;;;;;;;0.68;0.50;;;24.80;46.90;;;;;;5026953;28;20033;-82
2023/04/27 11:14:37;;;;;;;2.17;0.70;;;24.90;45.70;;;;;;5027038;28;20060;-82
2023/04/27 11:17:04;;;;;;;0.43;0.40;;;25.00;45.70;;;;;;5032276;28;20053;-82
2023/04/27 11:19:29;;;;;;;1.85;0.63;;;25.10;45.90;;;;;;5028194;28;20428;-82
2023/04/27 11:22:03;;;;;;;0.73;0.60;;;25.20;46.10;;;;;;5039410;28;20102;-82
2023/04/27 11:24:29;;;;;;;1.95;0.50;;;25.40;45.70;;;;;;5032253;28;20040;-82
2023/04/27 11:26:54;;;;;;;0.90;0.50;;;25.50;45.00;;;;;;5034342;28;20100;-82
2023/04/27 11:29:20;;;;;;;1.85;0.50;;;25.60;45.00;;;;;;5031773;28;20049;-82
2023/04/27 11:31:48;;;;;;;1.55;0.95;;;25.70;45.00;;;;;;5033267;28;20378;-82
2023/04/27 13:43:54;;;;;;;0.65;0.57;;;25.00;38.90;;;;;;6171394;22;1337083;-79
2023/04/27 13:46:19;;;;;;;1.30;0.80;;;25.30;39.60;;;;;;6193041;23;20005;-78
2023/04/27 13:48:45;;;;;;;1.20;0.82;;;25.40;40.00;;;;;;6193895;23;20419;-78
2023/04/27 13:51:11;;;;;;;0.70;0.60;;;25.40;40.20;;;;;;6193787;23;20001;-78
2023/04/27 13:53:37;;;;;;;1.58;0.32;;;25.40;39.20;;;;;;6193544;23;20001;-78
2023/04/27 13:56:02;;;;;;;0.65;0.45;;;25.40;38.60;;;;;;6193115;23;20327;-79
2023/04/27 13:58:28;;;;;;;0.30;0.30;;;25.30;39.10;;;;;;6193084;23;20300;-79
2023/04/27 14:00:54;;;;;;;0.85;0.63;;;25.20;38.80;;;;;;6192724;23;20005;-79
2023/04/27 14:03:21;;;;;;;0.30;0.30;;;25.10;39.30;;;;;;6192864;23;20028;-79
2023/04/27 14:05:52;;;;;;;2.22;0.57;;;24.90;39.40;;;;;;6193769;23;20001;-79
2023/04/27 14:08:18;;;;;;;0.65;0.50;;;24.80;39.70;;;;;;6193627;23;20081;-79
2023/04/27 14:10:44;;;;;;;4.85;0.50;;;24.70;39.70;;;;;;6167277;23;20036;-79
2023/04/27 14:13:11;;;;;;;1.08;0.60;;;24.60;39.90;;;;;;6192719;23;20001;-78
2023/04/27 14:15:36;;;;;;;1.40;0.73;;;24.40;40.40;;;;;;6193518;23;20327;-78
2023/04/27 14:18:04;;;;;;;1.00;0.60;;;24.30;41.20;;;;;;6166313;23;20423;-78
2023/04/27 14:20:30;;;;;;;0.50;0.50;;;24.10;40.90;;;;;;6193296;23;20004;-79
2023/04/27 14:22:56;;;;;;;0.85;0.60;;;24.10;40.90;;;;;;6165874;23;20005;-79
2023/04/27 14:25:22;;;;;;;1.35;0.45;;;24.00;40.50;;;;;;6162874;23;20058;-78
2023/04/27 14:27:48;;;;;;;1.27;0.60;;;23.90;40.50;;;;;;6190797;23;20029;-78
2023/04/27 14:30:14;;;;;;;1.27;0.60;;;23.70;40.10;;;;;;6165270;23;20442;-78
2023/04/27 14:32:40;;;;;;;0.47;0.47;;;23.70;40.70;;;;;;6191442;23;20009;-75
2023/04/27 14:35:07;;;;;;;0.75;0.50;;;23.60;41.40;;;;;;6192281;23;20100;-75
2023/04/27 14:37:32;;;;;;;0.98;0.55;;;23.50;41.00;;;;;;6192377;23;20436;-75
2023/04/27 14:39:59;;;;;;;0.98;0.50;;;23.40;40.80;;;;;;6192366;23;20004;-75
2023/04/27 14:42:25;;;;;;;0.38;0.30;;;23.40;41.00;;;;;;6192507;23;20041;-75
2023/04/27 14:44:50;;;;;;;1.35;0.50;;;23.30;40.10;;;;;;6185710;23;20308;-79
2023/04/27 14:47:17;;;;;;;4.13;0.85;;;23.20;40.50;;;;;;6186416;23;20009;-79
2023/04/27 14:49:43;;;;;;;0.47;0.47;;;23.10;40.70;;;;;;6185624;23;20033;-78
2023/04/27 14:52:08;;;;;;;2.83;0.57;;;23.00;41.30;;;;;;6185549;23;20593;-78
2023/04/27 14:54:34;;;;;;;0.68;0.32;;;22.90;41.20;;;;;;6186109;23;20320;-78
2023/04/27 14:57:00;;;;;;;2.60;0.57;;;22.90;40.60;;;;;;6160036;23;20061;-78